This is the latest recevied weather packets stored in our database for station/object KD7AWQ. If no packets are shown the sender has not sent any weather packets the latest 10 day(s).
| Time | Temp. | Humidity | Pressure | Rain* | Wind** | Luminosity | Snow |
|---|---|---|---|---|---|---|---|
| 1788178281 | 20° C | 82% | 1187.8 hPa | 0 mm | - | 0 W/m² | - |
| 1788177975 | 20° C | 81% | 1187.8 hPa | 0 mm | - | 0 W/m² | - |
| 1788177670 | 20° C | 78% | 1187.7 hPa | 0 mm | - | 0 W/m² | - |
| 1788177366 | 20° C | 78% | 1188.3 hPa | 0 mm | - | 0 W/m² | - |
| 1788177062 | 20° C | 77% | 1188.1 hPa | 0 mm | - | 0 W/m² | - |
| 1788176760 | 20° C | 78% | 1188.2 hPa | 0 mm | - | 0 W/m² | - |
| 1788176455 | 20° C | 77% | 1188.1 hPa | 0 mm | - | 0 W/m² | - |
| 1788176154 | 20.56° C | 76% | 1188.2 hPa | 0 mm | - | 0 W/m² | - |
| 1788175850 | 20.56° C | 73% | 1188.1 hPa | 0 mm | - | 0 W/m² | - |
| 1788175549 | 21.11° C | 72% | 1187.9 hPa | 0 mm | - | 0 W/m² | - |
| 1788175245 | 21.67° C | 71% | 1187.9 hPa | 0 mm | - | 0 W/m² | - |
| 1788174941 | 23.33° C | 58% | 1188 hPa | 0 mm | - | 0 W/m² | - |
| 1788174636 | 22.78° C | 57% | 1187.8 hPa | 0 mm | - | 0 W/m² | - |
| 1788174331 | 21.67° C | 63% | 1187.4 hPa | 0 mm | - | 0 W/m² | - |
| 1788174026 | 21.67° C | 65% | 1187.8 hPa | 0 mm | - | 0 W/m² | - |
| 1788173725 | 21.67° C | 67% | 1187.9 hPa | 0 mm | - | 0 W/m² | - |
| 1788173421 | 21.67° C | 68% | 1187.8 hPa | 0 mm | - | 0 W/m² | - |
| 1788173117 | 21.67° C | 70% | 1187.9 hPa | 0 mm | - | 0 W/m² | - |
| 1788172813 | 21.67° C | 71% | 1187.8 hPa | 0 mm | - | 0 W/m² | - |
| 1788172507 | 21.67° C | 72% | 1187.8 hPa | 0 mm | - | 0 W/m² | - |
| 1788172203 | 21.67° C | 71% | 1187.5 hPa | 0 mm | - | 0 W/m² | - |
| 1788171897 | 21.67° C | 71% | 1187.5 hPa | 0 mm | - | 0 W/m² | - |
| 1788171592 | 21.67° C | 69% | 1187.8 hPa | 0 mm | - | 0 W/m² | - |
| 1788171287 | 21.11° C | 63% | 1188 hPa | 0 mm | - | 0 W/m² | - |
| 1788170983 | 21.11° C | 69% | 1187.9 hPa | 0 mm | - | 0 W/m² | - |
* Rain latest hour (hover to see other rain measurements)
** Current wind speed in m/s (hover to see current wind gust speed)